createdAt,value
2022-11-01T00:04:11.347Z,100.00
2022-11-01T00:09:12.909Z,100.00
2022-11-01T00:14:19.797Z,100.00
2022-11-01T00:19:21.325Z,100.00
2022-11-01T00:24:23.054Z,100.00
2022-11-01T00:29:24.668Z,100.00
2022-11-01T00:34:26.272Z,100.00
2022-11-01T00:39:31.358Z,100.00
2022-11-01T00:44:33.090Z,100.00
2022-11-01T00:49:34.671Z,100.00
2022-11-01T00:54:36.253Z,100.00
2022-11-01T00:59:40.919Z,100.00
2022-11-01T01:04:43.332Z,100.00
2022-11-01T01:09:44.868Z,100.00
2022-11-01T01:14:46.547Z,100.00
2022-11-01T01:19:48.095Z,100.00
2022-11-01T01:24:49.739Z,100.00
2022-11-01T01:29:52.100Z,100.00
2022-11-01T01:34:53.958Z,100.00
2022-11-01T01:39:55.625Z,100.00
2022-11-01T01:44:57.181Z,100.00
2022-11-01T01:50:01.287Z,100.00
2022-11-01T01:55:07.384Z,100.00
2022-11-01T02:00:09.601Z,100.00
2022-11-01T02:05:36.300Z,100.00
2022-11-01T02:10:38.451Z,100.00
2022-11-01T02:15:52.635Z,100.00
2022-11-01T02:21:17.693Z,100.00
2022-11-01T02:26:50.012Z,100.00
2022-11-01T02:32:10.318Z,100.00
2022-11-01T02:37:34.703Z,100.00
2022-11-01T02:42:46.457Z,100.00
2022-11-01T02:47:48.005Z,100.00
2022-11-01T02:52:49.735Z,100.00
2022-11-01T02:57:51.447Z,100.00
2022-11-01T03:03:04.437Z,100.00
2022-11-01T03:08:19.299Z,100.00
2022-11-01T03:14:01.067Z,100.00
2022-11-01T03:19:34.158Z,100.00
2022-11-01T03:24:56.622Z,100.00
2022-11-01T03:30:14.118Z,100.00
2022-11-01T03:35:19.511Z,100.00
2022-11-01T03:40:23.208Z,100.00
2022-11-01T03:45:26.712Z,100.00
2022-11-01T03:50:29.221Z,100.00
2022-11-01T03:55:30.804Z,100.00
2022-11-01T04:00:36.376Z,100.00
2022-11-01T04:05:39.634Z,100.00
2022-11-01T04:10:42.064Z,100.00
2022-11-01T04:16:02.073Z,100.00
2022-11-01T04:21:07.926Z,100.00
2022-11-01T04:26:13.101Z,100.00
2022-11-01T04:31:14.704Z,100.00
2022-11-01T04:36:16.343Z,100.00
2022-11-01T04:41:19.434Z,100.00
2022-11-01T04:46:21.540Z,100.00
2022-11-01T04:51:23.179Z,100.00
2022-11-01T04:56:24.947Z,100.00
2022-11-01T05:01:26.985Z,100.00
2022-11-01T05:06:29.619Z,100.00
2022-11-01T05:11:31.165Z,100.00
2022-11-01T05:16:32.695Z,100.00
2022-11-01T05:21:34.298Z,100.00
2022-11-01T05:26:35.871Z,100.00
2022-11-01T05:31:38.072Z,100.00
2022-11-01T05:36:39.754Z,100.00
2022-11-01T05:41:41.440Z,100.00
2022-11-01T05:46:43.093Z,100.00
2022-11-01T05:51:44.615Z,100.00
2022-11-01T05:56:46.211Z,100.00
2022-11-01T06:01:47.926Z,100.00
2022-11-01T06:06:49.592Z,100.00
2022-11-01T06:11:51.278Z,100.00
2022-11-01T06:16:53.095Z,100.00
2022-11-01T06:21:54.590Z,100.00
2022-11-01T06:26:56.172Z,100.00
2022-11-01T06:31:57.735Z,100.00
2022-11-01T06:36:59.994Z,100.00
2022-11-01T06:42:01.572Z,100.00
2022-11-01T06:47:03.343Z,100.00
2022-11-01T06:52:05.382Z,100.00
2022-11-01T06:57:07.172Z,100.00
2022-11-01T07:02:14.309Z,100.00
2022-11-01T07:07:16.606Z,100.00
2022-11-01T07:12:18.549Z,100.00
2022-11-01T07:17:20.290Z,100.00
2022-11-01T07:22:21.922Z,100.00
2022-11-01T07:27:23.514Z,100.00
2022-11-01T07:32:25.136Z,100.00
2022-11-01T07:37:29.548Z,100.00
2022-11-01T07:42:31.133Z,100.00
2022-11-01T07:47:32.778Z,100.00
2022-11-01T07:52:34.385Z,100.00
2022-11-01T07:57:40.505Z,100.00
2022-11-01T08:02:42.115Z,100.00
2022-11-01T08:07:43.680Z,100.00
2022-11-01T08:12:45.262Z,100.00
2022-11-01T08:17:46.938Z,100.00
2022-11-01T08:22:48.551Z,100.00
2022-11-01T08:27:50.260Z,100.00
2022-11-01T08:32:59.029Z,100.00
2022-11-01T08:38:01.357Z,100.00
2022-11-01T08:43:03.335Z,95.00
2022-11-01T08:48:05.838Z,96.19
2022-11-01T08:53:12.410Z,98.78
2022-11-01T08:58:13.934Z,97.88
2022-11-01T09:03:16.067Z,95.91
2022-11-01T09:08:18.407Z,98.67
2022-11-01T09:13:20.590Z,97.65
2022-11-01T09:18:22.366Z,94.33
2022-11-01T09:23:24.002Z,92.46
2022-11-01T09:28:28.823Z,90.15
2022-11-01T09:33:32.259Z,91.54
2022-11-01T09:38:35.549Z,92.74
2022-11-01T09:43:41.081Z,91.87
2022-11-01T09:48:44.227Z,88.05
2022-11-01T09:53:46.577Z,89.99
2022-11-01T09:59:05.759Z,92.07
2022-11-01T10:04:10.194Z,92.21
2022-11-01T10:09:41.121Z,88.51
2022-11-01T10:15:19.914Z,88.85
2022-11-01T10:20:26.559Z,87.10
2022-11-01T10:25:30.596Z,87.15
2022-11-01T10:30:47.736Z,88.45
2022-11-01T10:35:53.607Z,87.41
2022-11-01T10:41:01.530Z,88.06
2022-11-01T10:46:07.387Z,86.69
2022-11-01T10:51:11.318Z,88.72
2022-11-01T10:56:24.560Z,86.59
2022-11-01T11:01:31.862Z,90.19
2022-11-01T11:06:36.176Z,87.25
2022-11-01T11:11:42.189Z,87.01
2022-11-01T11:16:57.224Z,87.44
2022-11-01T11:22:06.484Z,85.60
2022-11-01T11:27:24.060Z,85.82
2022-11-01T11:32:29.020Z,84.34
2022-11-01T11:37:34.737Z,84.76
2022-11-01T11:42:36.362Z,84.21
2022-11-01T11:47:38.379Z,81.94
2022-11-01T11:52:40.693Z,84.48
2022-11-01T11:57:51.977Z,85.47
2022-11-01T12:02:53.845Z,84.09
2022-11-01T12:07:57.000Z,83.62
2022-11-01T12:12:58.723Z,83.55
2022-11-01T12:18:15.978Z,84.10
2022-11-01T12:23:39.494Z,83.76
2022-11-01T12:29:08.050Z,78.37
2022-11-01T12:34:19.036Z,76.99
2022-11-01T12:39:41.763Z,76.66
2022-11-01T12:45:10.619Z,75.17
2022-11-01T12:50:21.782Z,74.05
2022-11-01T12:55:45.349Z,74.12
2022-11-01T13:01:07.395Z,72.66
2022-11-01T13:06:22.771Z,72.79
2022-11-01T13:11:42.781Z,73.17
2022-11-01T13:16:51.548Z,72.93
2022-11-01T13:22:03.650Z,73.92
2022-11-01T13:27:09.801Z,73.72
2022-11-01T13:32:35.820Z,73.58
2022-11-01T13:37:43.751Z,73.61
2022-11-01T13:43:05.135Z,75.77
2022-11-01T13:48:34.763Z,78.77
2022-11-01T13:53:49.576Z,78.36
2022-11-01T13:58:51.344Z,74.83
2022-11-01T14:04:11.305Z,74.88
2022-11-01T14:09:27.857Z,74.22
2022-11-01T14:14:29.394Z,75.09
2022-11-01T14:19:31.112Z,75.74
2022-11-01T14:24:35.514Z,76.56
2022-11-01T14:29:37.455Z,77.51
2022-11-01T14:34:41.604Z,78.53
2022-11-01T14:40:01.016Z,80.33
2022-11-01T14:45:10.748Z,81.26
2022-11-01T14:50:22.448Z,79.17
2022-11-01T14:55:32.051Z,77.50
2022-11-01T15:00:33.795Z,78.17
2022-11-01T15:05:44.030Z,78.01
2022-11-01T15:10:45.720Z,79.80
2022-11-01T15:16:03.818Z,81.42
2022-11-01T15:21:10.568Z,82.85
2022-11-01T15:26:13.167Z,83.26
2022-11-01T15:31:15.013Z,83.67
2022-11-01T15:36:23.402Z,86.59
2022-11-01T15:41:30.871Z,88.17
2022-11-01T15:46:37.440Z,89.68
2022-11-01T15:51:45.571Z,90.07
2022-11-01T15:56:52.885Z,90.54
2022-11-01T16:01:57.578Z,90.50
2022-11-01T16:07:06.617Z,90.75
2022-11-01T16:12:20.792Z,91.61
2022-11-01T16:17:34.955Z,92.63
2022-11-01T16:22:42.561Z,97.02
2022-11-01T16:28:04.536Z,98.15
2022-11-01T16:33:30.834Z,94.66
2022-11-01T16:38:38.561Z,94.50
2022-11-01T16:43:40.225Z,96.08
2022-11-01T16:48:59.763Z,97.78
2022-11-01T16:54:01.448Z,99.30
2022-11-01T16:59:37.769Z,100.00
2022-11-01T17:04:40.790Z,100.00
2022-11-01T17:09:42.476Z,100.00
2022-11-01T17:14:44.831Z,100.00
2022-11-01T17:19:52.910Z,100.00
2022-11-01T17:24:55.845Z,100.00
2022-11-01T17:29:57.485Z,100.00
2022-11-01T17:34:59.107Z,100.00
2022-11-01T17:40:01.196Z,100.00
2022-11-01T17:45:02.888Z,100.00
2022-11-01T17:50:05.085Z,100.00
2022-11-01T17:55:08.763Z,100.00
2022-11-01T18:00:11.405Z,100.00
2022-11-01T18:05:16.798Z,100.00
2022-11-01T18:10:45.252Z,100.00
2022-11-01T18:16:08.036Z,100.00
2022-11-01T18:21:22.097Z,100.00
2022-11-01T18:26:26.059Z,100.00
2022-11-01T18:31:34.124Z,100.00
2022-11-01T18:36:53.619Z,100.00
2022-11-01T18:41:55.264Z,100.00
2022-11-01T18:47:04.667Z,100.00
2022-11-01T18:52:14.279Z,100.00
2022-11-01T18:57:17.472Z,100.00
2022-11-01T19:02:28.117Z,100.00
2022-11-01T19:07:44.604Z,100.00
2022-11-01T19:12:56.203Z,100.00
2022-11-01T19:18:02.819Z,100.00
2022-11-01T19:23:18.752Z,100.00
2022-11-01T19:28:30.731Z,100.00
2022-11-01T19:33:37.472Z,100.00
2022-11-01T19:38:43.390Z,100.00
2022-11-01T19:43:45.086Z,100.00
2022-11-01T19:48:47.810Z,100.00
2022-11-01T19:53:51.424Z,100.00
2022-11-01T19:59:00.618Z,100.00
2022-11-01T20:04:29.743Z,100.00
2022-11-01T20:09:35.855Z,100.00
2022-11-01T20:14:38.001Z,100.00
2022-11-01T20:19:39.858Z,100.00
2022-11-01T20:24:41.419Z,100.00
2022-11-01T20:29:43.041Z,100.00
2022-11-01T20:34:44.605Z,100.00
2022-11-01T20:39:46.249Z,100.00
2022-11-01T20:44:47.879Z,100.00
2022-11-01T20:49:49.596Z,100.00
2022-11-01T20:54:51.613Z,100.00
2022-11-01T20:59:53.433Z,100.00
2022-11-01T21:05:05.736Z,100.00
2022-11-01T21:10:31.800Z,100.00
2022-11-01T21:15:39.057Z,100.00
2022-11-01T21:20:49.133Z,100.00
2022-11-01T21:25:53.486Z,100.00
2022-11-01T21:31:01.193Z,100.00
2022-11-01T21:36:21.366Z,100.00
2022-11-01T21:41:26.902Z,100.00
2022-11-01T21:46:34.834Z,100.00
2022-11-01T21:51:36.422Z,100.00
2022-11-01T21:56:37.941Z,100.00
2022-11-01T22:01:42.791Z,100.00
2022-11-01T22:06:45.632Z,100.00
2022-11-01T22:11:47.388Z,100.00
2022-11-01T22:16:48.921Z,100.00
2022-11-01T22:21:50.455Z,100.00
2022-11-01T22:26:52.079Z,100.00
2022-11-01T22:32:01.083Z,100.00
2022-11-01T22:37:12.498Z,100.00
2022-11-01T22:42:15.517Z,100.00
2022-11-01T22:47:22.643Z,100.00
2022-11-01T22:52:43.286Z,100.00
2022-11-01T22:57:49.275Z,100.00
2022-11-01T23:02:51.156Z,100.00
2022-11-01T23:07:55.863Z,100.00
2022-11-01T23:13:28.337Z,100.00
2022-11-01T23:18:33.135Z,100.00
2022-11-01T23:23:41.823Z,100.00
2022-11-01T23:28:46.391Z,100.00
2022-11-01T23:33:49.263Z,100.00
2022-11-01T23:44:35.936Z,100.00
2022-11-01T23:49:37.544Z,100.00
2022-11-01T23:54:42.934Z,100.00
2022-11-01T23:59:44.494Z,100.00
